Ghardaia, Algeria
Current Conditions -  °F | °C
As of 1:00 PM on Saturday 25 Oct 2014 (Local Time) from DAUG Reporting Station
Clear Clear  
Wind Chill: 28°   Ceiling: Unl
Heat Index: 28°   Visibility: 6mi
Dew Point:   Wind: 0mph
Humidity: 16%   Direction: NA
Pressure: 30.12"   Gusts: NA
Location:  32.49°N, 3.68°E
Report Text: DAUG 251200Z 00000KT CAVOK 28/00 Q1020
Loading
Personal Weather Stations






























Interactive Weather Map
Tropical Storm Tracking
New forecast layout! Learn more

10-Day Weather Forecast

Advertisements
Track Severe Weather on mobile